sensor_id;sensor_type;location;lat;lon;timestamp;pressure;altitude;pressure_sealevel;temperature;humidity
32109;BME280;18624;50.042;8.436;2022-11-10T00:02:01;100784.59;;;9.81;100.00
32109;BME280;18624;50.042;8.436;2022-11-10T00:04:47;100786.63;;;9.77;100.00
32109;BME280;18624;50.042;8.436;2022-11-10T00:07:32;100785.06;;;9.76;100.00
32109;BME280;18624;50.042;8.436;2022-11-10T00:10:17;100792.97;;;9.71;100.00
32109;BME280;18624;50.042;8.436;2022-11-10T00:13:03;100798.44;;;9.71;100.00
32109;BME280;18624;50.042;8.436;2022-11-10T00:15:48;100811.81;;;9.65;100.00
32109;BME280;18624;50.042;8.436;2022-11-10T00:18:52;100806.09;;;9.52;100.00
32109;BME280;18624;50.042;8.436;2022-11-10T00:21:37;100743.78;;;9.06;100.00
32109;BME280;18624;50.042;8.436;2022-11-10T00:24:22;100824.44;;;9.55;100.00
32109;BME280;18624;50.042;8.436;2022-11-10T00:27:07;100706.25;;;8.72;100.00
32109;BME280;18624;50.042;8.436;2022-11-10T00:29:52;100829.94;;;9.55;100.00
32109;BME280;18624;50.042;8.436;2022-11-10T00:32:38;100824.44;;;9.55;100.00
32109;BME280;18624;50.042;8.436;2022-11-10T00:35:23;100842.84;;;9.55;100.00
32109;BME280;18624;50.042;8.436;2022-11-10T00:38:07;100841.25;;;9.54;100.00
32109;BME280;18624;50.042;8.436;2022-11-10T00:40:52;100847.19;;;9.49;100.00
32109;BME280;18624;50.042;8.436;2022-11-10T00:43:37;100851.47;;;9.50;100.00
32109;BME280;18624;50.042;8.436;2022-11-10T00:46:23;100855.03;;;9.47;100.00
32109;BME280;18624;50.042;8.436;2022-11-10T00:49:08;100860.56;;;9.43;100.00
32109;BME280;18624;50.042;8.436;2022-11-10T00:51:53;100861.00;;;9.38;100.00
32109;BME280;18624;50.042;8.436;2022-11-10T00:54:38;100862.31;;;9.23;100.00
32109;BME280;18624;50.042;8.436;2022-11-10T00:57:23;100865.75;;;9.34;100.00
32109;BME280;18624;50.042;8.436;2022-11-10T01:00:08;100877.50;;;9.31;100.00
32109;BME280;18624;50.042;8.436;2022-11-10T01:02:54;100884.56;;;9.28;100.00
32109;BME280;18624;50.042;8.436;2022-11-10T01:05:40;100884.59;;;9.25;100.00
32109;BME280;18624;50.042;8.436;2022-11-10T01:08:25;100897.53;;;9.21;100.00
32109;BME280;18624;50.042;8.436;2022-11-10T01:11:21;100896.38;;;9.18;100.00
32109;BME280;18624;50.042;8.436;2022-11-10T01:14:07;100897.97;;;9.16;100.00
32109;BME280;18624;50.042;8.436;2022-11-10T01:16:52;100894.84;;;9.13;100.00
32109;BME280;18624;50.042;8.436;2022-11-10T01:19:37;100909.75;;;9.09;100.00
32109;BME280;18624;50.042;8.436;2022-11-10T01:22:22;100795.63;;;8.30;100.00
32109;BME280;18624;50.042;8.436;2022-11-10T01:25:07;100907.47;;;9.00;100.00
32109;BME280;18624;50.042;8.436;2022-11-10T01:27:52;100904.38;;;8.98;100.00
32109;BME280;18624;50.042;8.436;2022-11-10T01:30:37;100904.78;;;8.97;100.00
32109;BME280;18624;50.042;8.436;2022-11-10T01:33:22;100915.75;;;8.93;100.00
32109;BME280;18624;50.042;8.436;2022-11-10T01:36:09;100908.44;;;8.83;100.00
32109;BME280;18624;50.042;8.436;2022-11-10T01:38:55;100923.22;;;8.85;100.00
32109;BME280;18624;50.042;8.436;2022-11-10T01:41:40;100923.69;;;8.77;100.00
32109;BME280;18624;50.042;8.436;2022-11-10T01:44:25;100914.78;;;8.69;100.00
32109;BME280;18624;50.042;8.436;2022-11-10T01:47:10;100930.34;;;8.76;100.00
32109;BME280;18624;50.042;8.436;2022-11-10T01:49:55;100933.06;;;8.76;100.00
32109;BME280;18624;50.042;8.436;2022-11-10T01:52:42;100798.66;;;7.87;100.00
32109;BME280;18624;50.042;8.436;2022-11-10T01:55:29;100930.00;;;8.70;100.00
32109;BME280;18624;50.042;8.436;2022-11-10T01:58:19;100941.72;;;8.71;100.00
32109;BME280;18624;50.042;8.436;2022-11-10T02:01:08;100939.78;;;8.68;100.00
32109;BME280;18624;50.042;8.436;2022-11-10T02:03:59;100940.53;;;8.68;100.00
32109;BME280;18624;50.042;8.436;2022-11-10T02:06:47;100940.19;;;8.66;100.00
32109;BME280;18624;50.042;8.436;2022-11-10T02:09:33;100945.66;;;8.62;100.00
32109;BME280;18624;50.042;8.436;2022-11-10T02:12:19;100946.06;;;8.65;100.00
32109;BME280;18624;50.042;8.436;2022-11-10T02:15:20;100955.41;;;8.63;100.00
32109;BME280;18624;50.042;8.436;2022-11-10T02:18:06;100954.28;;;8.61;100.00
32109;BME280;18624;50.042;8.436;2022-11-10T02:20:51;100946.53;;;8.52;100.00
32109;BME280;18624;50.042;8.436;2022-11-10T02:26:24;100948.84;;;8.54;100.00
32109;BME280;18624;50.042;8.436;2022-11-10T02:29:11;100957.88;;;8.47;100.00
32109;BME280;18624;50.042;8.436;2022-11-10T02:31:57;100962.56;;;8.47;100.00
32109;BME280;18624;50.042;8.436;2022-11-10T02:34:42;100962.53;;;8.50;100.00
32109;BME280;18624;50.042;8.436;2022-11-10T02:37:28;100957.44;;;8.56;100.00
32109;BME280;18624;50.042;8.436;2022-11-10T02:40:13;100955.91;;;8.51;100.00
32109;BME280;18624;50.042;8.436;2022-11-10T02:42:58;100959.44;;;8.48;100.00
32109;BME280;18624;50.042;8.436;2022-11-10T02:45:43;100866.50;;;7.89;100.00
32109;BME280;18624;50.042;8.436;2022-11-10T02:48:29;100953.97;;;8.45;100.00
32109;BME280;18624;50.042;8.436;2022-11-10T02:51:14;100950.47;;;8.44;100.00
32109;BME280;18624;50.042;8.436;2022-11-10T02:53:59;100957.91;;;8.44;100.00
32109;BME280;18624;50.042;8.436;2022-11-10T02:56:44;100955.56;;;8.42;100.00
32109;BME280;18624;50.042;8.436;2022-11-10T02:59:30;100952.47;;;8.36;100.00
32109;BME280;18624;50.042;8.436;2022-11-10T03:02:14;100969.22;;;8.35;100.00
32109;BME280;18624;50.042;8.436;2022-11-10T03:05:00;100934.66;;;8.03;100.00
32109;BME280;18624;50.042;8.436;2022-11-10T03:07:51;100983.31;;;8.23;100.00
32109;BME280;18624;50.042;8.436;2022-11-10T03:10:37;100991.50;;;8.23;100.00
32109;BME280;18624;50.042;8.436;2022-11-10T03:13:23;100988.78;;;8.19;100.00
32109;BME280;18624;50.042;8.436;2022-11-10T03:16:09;100991.50;;;8.23;100.00
32109;BME280;18624;50.042;8.436;2022-11-10T03:18:54;100939.44;;;7.85;100.00
32109;BME280;18624;50.042;8.436;2022-11-10T03:21:39;101004.81;;;8.21;100.00
32109;BME280;18624;50.042;8.436;2022-11-10T03:24:24;101008.31;;;8.21;100.00
32109;BME280;18624;50.042;8.436;2022-11-10T03:27:09;101005.16;;;8.23;100.00
32109;BME280;18624;50.042;8.436;2022-11-10T03:29:54;101009.44;;;8.24;100.00
32109;BME280;18624;50.042;8.436;2022-11-10T03:32:39;101024.28;;;8.26;100.00
32109;BME280;18624;50.042;8.436;2022-11-10T03:35:25;101021.19;;;8.24;100.00
32109;BME280;18624;50.042;8.436;2022-11-10T03:38:10;101013.38;;;8.23;100.00
32109;BME280;18624;50.042;8.436;2022-11-10T03:40:55;100963.22;;;7.88;100.00
32109;BME280;18624;50.042;8.436;2022-11-10T03:44:00;101017.28;;;8.15;100.00
32109;BME280;18624;50.042;8.436;2022-11-10T03:46:46;101036.41;;;8.18;100.00
32109;BME280;18624;50.042;8.436;2022-11-10T03:49:35;101038.75;;;8.16;100.00
32109;BME280;18624;50.042;8.436;2022-11-10T03:52:20;101039.53;;;8.17;100.00
32109;BME280;18624;50.042;8.436;2022-11-10T03:55:06;101047.72;;;8.17;100.00
32109;BME280;18624;50.042;8.436;2022-11-10T03:57:51;100975.31;;;7.69;100.00
32109;BME280;18624;50.042;8.436;2022-11-10T04:00:36;101050.47;;;8.13;100.00
32109;BME280;18624;50.042;8.436;2022-11-10T04:03:21;101056.69;;;8.17;100.00
32109;BME280;18624;50.042;8.436;2022-11-10T04:06:09;101064.13;;;8.17;100.00
32109;BME280;18624;50.042;8.436;2022-11-10T04:09:14;101046.59;;;8.00;100.00
32109;BME280;18624;50.042;8.436;2022-11-10T04:11:59;101067.25;;;8.08;100.00
32109;BME280;18624;50.042;8.436;2022-11-10T04:15:09;101067.66;;;8.03;100.00
32109;BME280;18624;50.042;8.436;2022-11-10T04:18:14;101070.75;;;8.01;100.00
32109;BME280;18624;50.042;8.436;2022-11-10T04:21:07;100995.25;;;7.45;100.00
32109;BME280;18624;50.042;8.436;2022-11-10T04:23:52;101085.22;;;7.98;100.00
32109;BME280;18624;50.042;8.436;2022-11-10T04:26:37;101094.97;;;7.96;100.00
32109;BME280;18624;50.042;8.436;2022-11-10T04:29:24;101103.56;;;7.94;100.00
32109;BME280;18624;50.042;8.436;2022-11-10T04:32:09;101095.38;;;7.91;100.00
32109;BME280;18624;50.042;8.436;2022-11-10T04:34:54;101094.59;;;7.86;100.00
32109;BME280;18624;50.042;8.436;2022-11-10T04:37:39;101093.03;;;7.82;100.00
32109;BME280;18624;50.042;8.436;2022-11-10T04:40:24;101093.03;;;7.78;100.00
32109;BME280;18624;50.042;8.436;2022-11-10T04:43:09;101091.50;;;7.81;100.00
32109;BME280;18624;50.042;8.436;2022-11-10T04:45:55;101091.09;;;7.82;100.00
32109;BME280;18624;50.042;8.436;2022-11-10T04:48:40;101108.25;;;7.86;100.00
32109;BME280;18624;50.042;8.436;2022-11-10T04:51:31;101097.69;;;7.92;100.00
32109;BME280;18624;50.042;8.436;2022-11-10T04:54:17;101100.44;;;7.92;100.00
32109;BME280;18624;50.042;8.436;2022-11-10T04:57:02;101082.91;;;7.79;100.00
32109;BME280;18624;50.042;8.436;2022-11-10T04:59:47;101101.97;;;7.97;100.00
32109;BME280;18624;50.042;8.436;2022-11-10T05:02:32;101111.34;;;7.99;100.00
32109;BME280;18624;50.042;8.436;2022-11-10T05:05:23;101130.09;;;7.97;100.00
32109;BME280;18624;50.042;8.436;2022-11-10T05:08:09;101142.19;;;7.93;100.00
32109;BME280;18624;50.042;8.436;2022-11-10T05:10:54;101141.41;;;7.89;100.00
32109;BME280;18624;50.042;8.436;2022-11-10T05:13:39;101135.16;;;7.81;100.00
32109;BME280;18624;50.042;8.436;2022-11-10T05:16:24;101151.13;;;7.86;100.00
32109;BME280;18624;50.042;8.436;2022-11-10T05:19:09;101166.72;;;7.85;100.00
32109;BME280;18624;50.042;8.436;2022-11-10T05:21:54;101135.56;;;7.61;100.00
32109;BME280;18624;50.042;8.436;2022-11-10T05:24:39;101125.03;;;7.53;100.00
32109;BME280;18624;50.042;8.436;2022-11-10T05:27:24;101169.47;;;7.82;100.00
32109;BME280;18624;50.042;8.436;2022-11-10T05:30:09;101176.09;;;7.81;100.00
32109;BME280;18624;50.042;8.436;2022-11-10T05:32:55;101148.00;;;7.55;100.00
32109;BME280;18624;50.042;8.436;2022-11-10T05:35:40;101178.81;;;7.77;100.00
32109;BME280;18624;50.042;8.436;2022-11-10T05:38:26;101188.97;;;7.77;100.00
32109;BME280;18624;50.042;8.436;2022-11-10T05:41:11;101195.59;;;7.76;100.00
32109;BME280;18624;50.042;8.436;2022-11-10T05:43:56;101188.94;;;7.73;100.00
32109;BME280;18624;50.042;8.436;2022-11-10T05:46:41;101198.31;;;7.72;100.00
32109;BME280;18624;50.042;8.436;2022-11-10T05:49:26;101204.16;;;7.71;100.00
32109;BME280;18624;50.042;8.436;2022-11-10T05:52:12;101206.91;;;7.71;100.00
32109;BME280;18624;50.042;8.436;2022-11-10T05:54:57;101205.72;;;7.72;100.00
32109;BME280;18624;50.042;8.436;2022-11-10T05:57:43;101216.25;;;7.73;100.00
32109;BME280;18624;50.042;8.436;2022-11-10T06:00:30;101208.06;;;7.66;100.00
32109;BME280;18624;50.042;8.436;2022-11-10T06:03:17;101220.91;;;7.73;100.00
32109;BME280;18624;50.042;8.436;2022-11-10T06:06:02;101221.69;;;7.73;100.00
32109;BME280;18624;50.042;8.436;2022-11-10T06:08:47;101237.28;;;7.73;100.00
32109;BME280;18624;50.042;8.436;2022-11-10T06:11:32;101241.19;;;7.72;100.00
32109;BME280;18624;50.042;8.436;2022-11-10T06:14:17;101252.88;;;7.72;100.00
32109;BME280;18624;50.042;8.436;2022-11-10T06:17:02;101255.22;;;7.74;100.00
32109;BME280;18624;50.042;8.436;2022-11-10T06:19:47;101266.91;;;7.74;100.00
32109;BME280;18624;50.042;8.436;2022-11-10T06:22:32;101272.00;;;7.72;100.00
32109;BME280;18624;50.042;8.436;2022-11-10T06:25:17;101287.97;;;7.70;100.00
32109;BME280;18624;50.042;8.436;2022-11-10T06:28:03;101287.97;;;7.70;100.00
32109;BME280;18624;50.042;8.436;2022-11-10T06:30:49;101288.75;;;7.71;100.00
32109;BME280;18624;50.042;8.436;2022-11-10T06:33:34;101298.91;;;7.70;100.00
32109;BME280;18624;50.042;8.436;2022-11-10T06:36:19;101310.97;;;7.73;100.00
32109;BME280;18624;50.042;8.436;2022-11-10T06:39:04;101309.03;;;7.77;100.00
32109;BME280;18624;50.042;8.436;2022-11-10T06:41:49;101318.41;;;7.79;100.00
32109;BME280;18624;50.042;8.436;2022-11-10T06:44:34;101324.66;;;7.80;100.00
32109;BME280;18624;50.042;8.436;2022-11-10T06:47:19;101328.94;;;7.81;100.00
32109;BME280;18624;50.042;8.436;2022-11-10T06:50:04;101323.06;;;7.82;100.00
32109;BME280;18624;50.042;8.436;2022-11-10T06:52:54;101330.91;;;7.84;100.00
32109;BME280;18624;50.042;8.436;2022-11-10T06:55:39;101334.78;;;7.86;100.00
32109;BME280;18624;50.042;8.436;2022-11-10T06:58:24;101313.34;;;7.81;100.00
32109;BME280;18624;50.042;8.436;2022-11-10T07:01:09;101332.44;;;7.92;100.00
32109;BME280;18624;50.042;8.436;2022-11-10T07:03:54;101339.50;;;7.93;100.00
32109;BME280;18624;50.042;8.436;2022-11-10T07:06:59;101355.47;;;7.95;100.00
32109;BME280;18624;50.042;8.436;2022-11-10T07:09:44;101366.03;;;8.00;100.00
32109;BME280;18624;50.042;8.436;2022-11-10T07:12:30;101369.53;;;8.04;100.00
32109;BME280;18624;50.042;8.436;2022-11-10T07:15:14;101386.31;;;8.09;100.00
32109;BME280;18624;50.042;8.436;2022-11-10T07:18:05;101392.97;;;8.16;100.00
32109;BME280;18624;50.042;8.436;2022-11-10T07:20:52;101386.75;;;8.22;100.00
32109;BME280;18624;50.042;8.436;2022-11-10T07:23:37;101386.78;;;8.29;100.00
32109;BME280;18624;50.042;8.436;2022-11-10T07:26:22;101252.03;;;7.47;100.00
32109;BME280;18624;50.042;8.436;2022-11-10T07:29:07;101392.66;;;8.39;100.00
32109;BME280;18624;50.042;8.436;2022-11-10T07:31:52;101397.34;;;8.45;100.00
32109;BME280;18624;50.042;8.436;2022-11-10T07:34:37;101409.84;;;8.50;100.00
32109;BME280;18624;50.042;8.436;2022-11-10T07:37:22;101418.41;;;8.55;100.00
32109;BME280;18624;50.042;8.436;2022-11-10T07:40:07;101420.00;;;8.63;100.00
32109;BME280;18624;50.042;8.436;2022-11-10T07:42:53;101417.66;;;8.66;100.00
32109;BME280;18624;50.042;8.436;2022-11-10T07:45:38;101428.19;;;8.67;100.00
32109;BME280;18624;50.042;8.436;2022-11-10T07:48:23;101438.75;;;8.72;100.00
32109;BME280;18624;50.042;8.436;2022-11-10T07:51:08;101444.59;;;8.78;100.00
32109;BME280;18624;50.042;8.436;2022-11-10T07:53:53;101445.00;;;8.83;100.00
32109;BME280;18624;50.042;8.436;2022-11-10T07:56:38;101443.06;;;8.87;100.00
32109;BME280;18624;50.042;8.436;2022-11-10T07:59:24;101449.69;;;8.94;100.00
32109;BME280;18624;50.042;8.436;2022-11-10T08:02:10;101455.16;;;9.01;100.00
32109;BME280;18624;50.042;8.436;2022-11-10T08:04:55;101461.41;;;9.05;100.00
32109;BME280;18624;50.042;8.436;2022-11-10T08:07:40;101330.56;;;8.21;100.00
32109;BME280;18624;50.042;8.436;2022-11-10T08:10:27;101468.44;;;9.13;100.00
32109;BME280;18624;50.042;8.436;2022-11-10T08:13:12;101462.19;;;9.12;100.00
32109;BME280;18624;50.042;8.436;2022-11-10T08:15:57;101450.84;;;9.03;100.00
32109;BME280;18624;50.042;8.436;2022-11-10T08:18:43;101465.69;;;9.20;100.00
32109;BME280;18624;50.042;8.436;2022-11-10T08:21:28;101468.03;;;9.25;100.00
32109;BME280;18624;50.042;8.436;2022-11-10T08:24:13;101472.31;;;9.30;100.00
32109;BME280;18624;50.042;8.436;2022-11-10T08:26:58;101370.41;;;8.58;100.00
32109;BME280;18624;50.042;8.436;2022-11-10T08:29:43;101476.59;;;9.45;100.00
32109;BME280;18624;50.042;8.436;2022-11-10T08:32:28;101471.53;;;9.47;100.00
32109;BME280;18624;50.042;8.436;2022-11-10T08:35:14;101476.59;;;9.56;100.00
32109;BME280;18624;50.042;8.436;2022-11-10T08:38:25;101462.53;;;9.47;100.00
32109;BME280;18624;50.042;8.436;2022-11-10T08:41:09;101484.75;;;9.67;100.00
32109;BME280;18624;50.042;8.436;2022-11-10T08:43:54;101428.56;;;9.33;100.00
32109;BME280;18624;50.042;8.436;2022-11-10T08:46:39;101486.31;;;9.71;100.00
32109;BME280;18624;50.042;8.436;2022-11-10T08:49:24;101491.38;;;9.76;100.00
32109;BME280;18624;50.042;8.436;2022-11-10T08:52:09;101496.44;;;9.81;100.00
32109;BME280;18624;50.042;8.436;2022-11-10T08:54:55;101496.44;;;9.85;100.00
32109;BME280;18624;50.042;8.436;2022-11-10T08:57:39;101494.47;;;9.85;100.00
32109;BME280;18624;50.042;8.436;2022-11-10T09:00:25;101507.38;;;9.88;100.00
32109;BME280;18624;50.042;8.436;2022-11-10T09:03:17;101517.16;;;9.93;100.00
32109;BME280;18624;50.042;8.436;2022-11-10T09:06:03;101504.66;;;9.96;100.00
32109;BME280;18624;50.042;8.436;2022-11-10T09:08:48;101511.28;;;9.98;100.00
32109;BME280;18624;50.042;8.436;2022-11-10T09:11:33;101512.03;;;9.99;100.00
32109;BME280;18624;50.042;8.436;2022-11-10T09:14:19;101522.22;;;10.02;100.00
32109;BME280;18624;50.042;8.436;2022-11-10T09:17:04;101517.13;;;10.04;100.00
32109;BME280;18624;50.042;8.436;2022-11-10T09:19:49;101526.91;;;10.05;100.00
32109;BME280;18624;50.042;8.436;2022-11-10T09:22:35;101529.66;;;10.05;100.00
32109;BME280;18624;50.042;8.436;2022-11-10T09:25:21;101533.16;;;10.09;100.00
32109;BME280;18624;50.042;8.436;2022-11-10T09:28:13;101540.19;;;10.13;100.00
32109;BME280;18624;50.042;8.436;2022-11-10T09:30:58;101534.66;;;10.17;100.00
32109;BME280;18624;50.042;8.436;2022-11-10T09:33:44;101552.28;;;10.20;100.00
32109;BME280;18624;50.042;8.436;2022-11-10T09:36:29;101436.72;;;9.48;100.00
32109;BME280;18624;50.042;8.436;2022-11-10T09:39:14;101559.72;;;10.26;100.00
32109;BME280;18624;50.042;8.436;2022-11-10T09:41:59;101560.13;;;10.28;100.00
32109;BME280;18624;50.042;8.436;2022-11-10T09:44:50;101553.84;;;10.31;100.00
32109;BME280;18624;50.042;8.436;2022-11-10T09:51:05;101574.19;;;10.37;100.00
32109;BME280;18624;50.042;8.436;2022-11-10T09:54:23;101458.16;;;9.67;100.00
32109;BME280;18624;50.042;8.436;2022-11-10T09:57:14;101572.97;;;10.42;100.00
32109;BME280;18624;50.042;8.436;2022-11-10T10:00:02;101564.34;;;10.44;100.00
32109;BME280;18624;50.042;8.436;2022-11-10T10:02:52;101577.59;;;10.59;100.00
32109;BME280;18624;50.042;8.436;2022-11-10T10:09:11;101589.28;;;10.71;100.00
32109;BME280;18624;50.042;8.436;2022-11-10T10:15:02;101590.88;;;10.72;100.00
32109;BME280;18624;50.042;8.436;2022-11-10T10:18:15;101588.50;;;10.70;100.00
32109;BME280;18624;50.042;8.436;2022-11-10T10:24:13;101599.06;;;10.75;100.00
32109;BME280;18624;50.042;8.436;2022-11-10T10:27:10;101599.06;;;10.75;100.00
32109;BME280;18624;50.042;8.436;2022-11-10T10:29:58;101606.91;;;10.77;100.00
32109;BME280;18624;50.042;8.436;2022-11-10T10:32:44;101601.00;;;10.78;100.00
32109;BME280;18624;50.042;8.436;2022-11-10T10:35:29;101596.66;;;10.84;100.00
32109;BME280;18624;50.042;8.436;2022-11-10T10:38:23;101606.41;;;10.89;100.00
32109;BME280;18624;50.042;8.436;2022-11-10T10:41:21;101505.31;;;10.32;100.00
32109;BME280;18624;50.042;8.436;2022-11-10T10:44:18;101593.91;;;10.88;100.00
32109;BME280;18624;50.042;8.436;2022-11-10T10:47:03;101597.03;;;10.90;100.00
32109;BME280;18624;50.042;8.436;2022-11-10T10:49:48;101586.88;;;10.80;100.00
32109;BME280;18624;50.042;8.436;2022-11-10T10:52:33;101603.25;;;10.94;100.00
32109;BME280;18624;50.042;8.436;2022-11-10T10:55:18;101600.91;;;10.96;100.00
32109;BME280;18624;50.042;8.436;2022-11-10T10:58:21;101569.28;;;10.81;100.00
32109;BME280;18624;50.042;8.436;2022-11-10T11:04:05;101596.53;;;11.06;100.00
32109;BME280;18624;50.042;8.436;2022-11-10T11:06:59;101594.91;;;11.12;100.00
32109;BME280;18624;50.042;8.436;2022-11-10T11:09:44;101593.75;;;11.13;100.00
32109;BME280;18624;50.042;8.436;2022-11-10T11:12:29;101599.59;;;11.19;100.00
32109;BME280;18624;50.042;8.436;2022-11-10T11:18:14;101597.97;;;11.21;100.00
32109;BME280;18624;50.042;8.436;2022-11-10T11:21:25;101534.41;;;10.78;100.00
32109;BME280;18624;50.042;8.436;2022-11-10T11:24:24;101603.44;;;11.28;100.00
32109;BME280;18624;50.042;8.436;2022-11-10T11:36:18;101606.91;;;11.36;100.00
32109;BME280;18624;50.042;8.436;2022-11-10T11:39:29;101611.22;;;11.37;100.00
32109;BME280;18624;50.042;8.436;2022-11-10T11:42:30;101613.16;;;11.40;100.00
32109;BME280;18624;50.042;8.436;2022-11-10T11:45:22;101619.81;;;11.39;100.00
32109;BME280;18624;50.042;8.436;2022-11-10T11:51:49;101547.22;;;10.99;100.00
32109;BME280;18624;50.042;8.436;2022-11-10T11:55:03;101526.53;;;10.83;100.00
32109;BME280;18624;50.042;8.436;2022-11-10T11:58:13;101617.81;;;11.47;100.00
32109;BME280;18624;50.042;8.436;2022-11-10T12:01:30;101612.31;;;11.47;100.00
32109;BME280;18624;50.042;8.436;2022-11-10T12:04:41;101499.53;;;10.82;100.00
32109;BME280;18624;50.042;8.436;2022-11-10T12:07:37;101617.78;;;11.50;100.00
32109;BME280;18624;50.042;8.436;2022-11-10T12:10:42;101605.22;;;11.53;100.00
32109;BME280;18624;50.042;8.436;2022-11-10T12:16:33;101605.59;;;11.55;100.00
32109;BME280;18624;50.042;8.436;2022-11-10T12:22:23;101596.56;;;11.54;100.00
32109;BME280;18624;50.042;8.436;2022-11-10T12:28:12;101620.81;;;11.63;100.00
32109;BME280;18624;50.042;8.436;2022-11-10T12:31:02;101622.72;;;11.66;100.00
32109;BME280;18624;50.042;8.436;2022-11-10T12:34:00;101620.38;;;11.68;100.00
32109;BME280;18624;50.042;8.436;2022-11-10T12:36:47;101607.44;;;11.65;100.00
32109;BME280;18624;50.042;8.436;2022-11-10T12:39:54;101619.16;;;11.73;100.00
32109;BME280;18624;50.042;8.436;2022-11-10T12:42:57;101624.63;;;11.76;100.00
32109;BME280;18624;50.042;8.436;2022-11-10T12:45:45;101614.47;;;11.70;100.00
32109;BME280;18624;50.042;8.436;2022-11-10T12:48:41;101618.34;;;11.76;100.00
32109;BME280;18624;50.042;8.436;2022-11-10T12:51:44;101628.50;;;11.79;100.00
32109;BME280;18624;50.042;8.436;2022-11-10T12:54:33;101622.25;;;11.78;100.00
32109;BME280;18624;50.042;8.436;2022-11-10T12:57:23;101621.44;;;11.81;100.00
32109;BME280;18624;50.042;8.436;2022-11-10T13:00:31;101621.44;;;11.81;100.00
32109;BME280;18624;50.042;8.436;2022-11-10T13:03:35;101618.31;;;11.79;100.00
32109;BME280;18624;50.042;8.436;2022-11-10T13:06:26;101623.78;;;11.79;100.00
32109;BME280;18624;50.042;8.436;2022-11-10T13:09:25;101625.34;;;11.84;100.00
32109;BME280;18624;50.042;8.436;2022-11-10T13:12:20;101623.78;;;11.86;100.00
32109;BME280;18624;50.042;8.436;2022-11-10T13:21:14;101633.97;;;11.89;100.00
32109;BME280;18624;50.042;8.436;2022-11-10T13:26:54;101636.69;;;11.89;100.00
32109;BME280;18624;50.042;8.436;2022-11-10T13:32:33;101644.53;;;11.91;100.00
32109;BME280;18624;50.042;8.436;2022-11-10T13:38:32;101619.09;;;11.80;100.00
32109;BME280;18624;50.042;8.436;2022-11-10T13:41:23;101636.66;;;11.93;100.00
32109;BME280;18624;50.042;8.436;2022-11-10T13:44:31;101637.47;;;11.90;100.00
32109;BME280;18624;50.042;8.436;2022-11-10T13:50:26;101639.38;;;11.97;100.00
32109;BME280;18624;50.042;8.436;2022-11-10T13:59:29;101639.34;;;12.00;100.00
32109;BME280;18624;50.042;8.436;2022-11-10T14:08:18;101648.38;;;11.97;100.00
32109;BME280;18624;50.042;8.436;2022-11-10T14:11:12;101643.66;;;11.98;100.00
32109;BME280;18624;50.042;8.436;2022-11-10T14:14:09;101532.94;;;11.22;100.00
32109;BME280;18624;50.042;8.436;2022-11-10T14:16:55;101651.13;;;11.97;100.00
32109;BME280;18624;50.042;8.436;2022-11-10T14:19:42;101578.59;;;11.46;100.00
32109;BME280;18624;50.042;8.436;2022-11-10T14:22:42;101655.84;;;11.97;100.00
32109;BME280;18624;50.042;8.436;2022-11-10T14:25:38;101664.09;;;11.97;100.00
32109;BME280;18624;50.042;8.436;2022-11-10T14:28:30;101656.63;;;11.97;100.00
32109;BME280;18624;50.042;8.436;2022-11-10T14:31:19;101661.38;;;11.93;100.00
32109;BME280;18624;50.042;8.436;2022-11-10T14:34:05;101673.19;;;11.90;100.00
32109;BME280;18624;50.042;8.436;2022-11-10T14:36:58;101667.31;;;11.88;100.00
32109;BME280;18624;50.042;8.436;2022-11-10T14:39:45;101677.91;;;11.89;100.00
32109;BME280;18624;50.042;8.436;2022-11-10T14:42:32;101681.47;;;11.86;100.00
32109;BME280;18624;50.042;8.436;2022-11-10T14:45:23;101679.91;;;11.82;100.00
32109;BME280;18624;50.042;8.436;2022-11-10T14:48:17;101685.41;;;11.82;100.00
32109;BME280;18624;50.042;8.436;2022-11-10T14:51:07;101690.88;;;11.82;100.00
32109;BME280;18624;50.042;8.436;2022-11-10T14:53:56;101695.59;;;11.81;100.00
32109;BME280;18624;50.042;8.436;2022-11-10T14:56:42;101582.81;;;11.02;100.00
32109;BME280;18624;50.042;8.436;2022-11-10T14:59:26;101709.38;;;11.78;100.00
32109;BME280;18624;50.042;8.436;2022-11-10T15:02:17;101711.34;;;11.77;100.00
32109;BME280;18624;50.042;8.436;2022-11-10T15:05:03;101710.16;;;11.75;100.00
32109;BME280;18624;50.042;8.436;2022-11-10T15:07:54;101713.31;;;11.73;100.00
32109;BME280;18624;50.042;8.436;2022-11-10T15:19:28;101709.88;;;11.62;100.00
32109;BME280;18624;50.042;8.436;2022-11-10T15:22:19;101704.41;;;11.62;100.00
32109;BME280;18624;50.042;8.436;2022-11-10T15:25:14;101707.53;;;11.60;100.00
32109;BME280;18624;50.042;8.436;2022-11-10T15:31:04;101710.34;;;11.53;100.00
32109;BME280;18624;50.042;8.436;2022-11-10T15:33:53;101703.25;;;11.52;100.00
32109;BME280;18624;50.042;8.436;2022-11-10T15:36:38;101702.50;;;11.48;100.00
32109;BME280;18624;50.042;8.436;2022-11-10T15:39:23;101704.09;;;11.46;100.00
32109;BME280;18624;50.042;8.436;2022-11-10T15:42:18;101708.03;;;11.45;100.00
32109;BME280;18624;50.042;8.436;2022-11-10T15:45:05;101628.00;;;10.87;100.00
32109;BME280;18624;50.042;8.436;2022-11-10T15:47:50;101715.16;;;11.35;100.00
32109;BME280;18624;50.042;8.436;2022-11-10T15:50:36;101727.69;;;11.36;100.00
32109;BME280;18624;50.042;8.436;2022-11-10T15:53:26;101717.91;;;11.31;100.00
32109;BME280;18624;50.042;8.436;2022-11-10T15:56:13;101728.91;;;11.28;100.00
32109;BME280;18624;50.042;8.436;2022-11-10T15:59:00;101722.66;;;11.20;100.00
32109;BME280;18624;50.042;8.436;2022-11-10T16:01:47;101736.81;;;11.19;100.00